Time;durP1;ratioP1;P1;durP2;ratioP2;P2;SDS_P1;SDS_P2;PMS_P1;PMS_P2;Temp;Humidity;BMP_temperature;BMP_pressure;BME280_temperature;BME280_humidity;BME280_pressure;Samples;Min_cycle;Max_cycle;Signal;HPM_P1;HPM_P2
2022/04/04 00:01:41;;;;;;;2.50;1.87;;;2.60;99.90;;;;;;5028101;28;20205;-78
2022/04/04 00:04:09;;;;;;;2.50;2.27;;;2.60;99.90;;;;;;5028085;28;20212;-80
2022/04/04 00:06:36;;;;;;;2.13;1.90;;;2.60;99.90;;;;;;5028271;28;20335;-80
2022/04/04 00:09:03;;;;;;;3.27;2.20;;;2.60;99.90;;;;;;5027544;28;20806;-80
2022/04/04 00:11:30;;;;;;;2.03;1.93;;;2.60;99.90;;;;;;5028065;28;20282;-80
2022/04/04 00:13:56;;;;;;;1.90;1.67;;;2.50;99.90;;;;;;5027759;28;20212;-83
2022/04/04 00:16:23;;;;;;;1.80;1.70;;;2.50;99.90;;;;;;5027730;28;20660;-81
2022/04/04 00:18:50;;;;;;;1.87;1.77;;;2.50;99.90;;;;;;5044708;28;20244;-82
2022/04/04 00:21:19;;;;;;;2.23;2.03;;;2.40;99.90;;;;;;5044746;28;20207;-82
2022/04/04 00:23:46;;;;;;;2.23;2.13;;;2.40;99.90;;;;;;5015997;28;20211;-84
2022/04/04 00:26:12;;;;;;;2.30;2.10;;;2.40;99.90;;;;;;5008369;28;20271;-85
2022/04/04 00:28:39;;;;;;;2.30;2.10;;;2.30;99.90;;;;;;5008335;28;20260;-84
2022/04/04 00:31:06;;;;;;;2.27;2.17;;;2.30;99.90;;;;;;5023340;28;20286;-85
2022/04/04 00:33:32;;;;;;;2.77;2.10;;;2.20;99.90;;;;;;5027932;28;20557;-82
2022/04/04 00:35:59;;;;;;;2.10;2.00;;;2.30;99.90;;;;;;5026388;28;20220;-80
2022/04/04 00:38:27;;;;;;;2.30;2.10;;;2.30;99.90;;;;;;5029542;28;20659;-80
2022/04/04 00:40:54;;;;;;;2.27;2.17;;;2.30;99.90;;;;;;5031219;28;20239;-79
2022/04/04 00:43:20;;;;;;;2.63;2.43;;;2.40;99.90;;;;;;5031343;28;20201;-80
2022/04/04 00:45:47;;;;;;;1.97;1.87;;;2.30;99.90;;;;;;5030864;28;20615;-81
2022/04/04 00:48:14;;;;;;;2.23;2.03;;;2.30;99.90;;;;;;5031619;28;20213;-80
2022/04/04 00:50:40;;;;;;;2.07;1.97;;;2.40;99.90;;;;;;5030982;28;20608;-81
2022/04/04 00:53:09;;;;;;;2.10;2.00;;;2.30;99.90;;;;;;5027098;28;20260;-82
2022/04/04 00:55:37;;;;;;;2.97;2.40;;;2.30;99.90;;;;;;5031378;28;20213;-80
2022/04/04 00:58:05;;;;;;;2.30;2.13;;;2.30;99.90;;;;;;5031092;28;20208;-80
2022/04/04 01:00:32;;;;;;;2.40;2.20;;;2.30;99.90;;;;;;5030898;28;20609;-82
2022/04/04 01:02:59;;;;;;;2.50;2.30;;;2.30;99.90;;;;;;5031114;28;20400;-82
2022/04/04 01:05:26;;;;;;;2.30;2.20;;;2.30;99.90;;;;;;5030581;28;20613;-82
2022/04/04 01:07:52;;;;;;;2.77;2.57;;;2.20;99.90;;;;;;5030956;28;20200;-84
2022/04/04 01:10:19;;;;;;;2.70;2.50;;;2.20;99.90;;;;;;5031064;28;20209;-83
2022/04/04 01:12:55;;;;;;;2.10;2.00;;;2.20;99.90;;;;;;5030578;28;20700;-82
2022/04/04 01:15:26;;;;;;;2.40;2.20;;;2.20;99.90;;;;;;5030670;28;20623;-82
2022/04/04 01:17:53;;;;;;;2.00;1.90;;;2.30;99.90;;;;;;5030100;28;20201;-82
2022/04/04 01:20:20;;;;;;;2.73;2.53;;;2.30;99.90;;;;;;5030417;28;20236;-80
2022/04/04 01:22:48;;;;;;;2.53;2.33;;;2.20;99.90;;;;;;5030357;28;20213;-81
2022/04/04 01:25:17;;;;;;;2.40;2.30;;;2.20;99.90;;;;;;5030708;28;20204;-81
2022/04/04 01:27:46;;;;;;;2.90;2.70;;;2.20;99.90;;;;;;5030747;28;20232;-80
2022/04/04 01:30:13;;;;;;;2.80;2.60;;;2.10;99.90;;;;;;5030540;28;20209;-79
2022/04/04 01:32:41;;;;;;;2.43;2.33;;;2.20;99.90;;;;;;5030273;28;20641;-80
2022/04/04 01:35:10;;;;;;;2.97;2.40;;;2.20;99.90;;;;;;5030659;28;20201;-80
2022/04/04 01:37:37;;;;;;;2.93;2.67;;;2.30;99.90;;;;;;5050253;28;20291;-81
2022/04/04 01:40:06;;;;;;;2.73;2.53;;;2.20;99.90;;;;;;5049901;28;20702;-80
2022/04/04 01:42:35;;;;;;;3.10;2.90;;;2.10;99.90;;;;;;5044359;28;20663;-80
2022/04/04 01:45:02;;;;;;;2.97;2.33;;;2.30;99.90;;;;;;5029915;28;20292;-80
2022/04/04 01:47:29;;;;;;;2.70;2.50;;;2.10;99.90;;;;;;5030246;28;20205;-81
2022/04/04 01:49:55;;;;;;;2.73;2.53;;;2.10;99.90;;;;;;5029419;28;20255;-80
2022/04/04 01:52:22;;;;;;;2.67;2.47;;;2.10;99.90;;;;;;5029300;28;20232;-81
2022/04/04 01:54:49;;;;;;;3.00;2.73;;;2.10;99.90;;;;;;5009945;28;20671;-81
2022/04/04 01:57:15;;;;;;;2.97;2.77;;;2.10;99.90;;;;;;5010011;28;20680;-81
2022/04/04 01:59:44;;;;;;;2.90;2.70;;;2.00;99.90;;;;;;5011216;28;20209;-81
2022/04/04 02:02:11;;;;;;;2.80;2.60;;;2.10;99.90;;;;;;5029895;28;20197;-80
2022/04/04 02:04:38;;;;;;;2.90;2.70;;;2.00;99.90;;;;;;5029582;28;20690;-80
2022/04/04 02:07:06;;;;;;;3.10;2.83;;;2.00;99.90;;;;;;5029701;28;20208;-81
2022/04/04 02:09:32;;;;;;;2.80;2.60;;;2.00;99.90;;;;;;5029767;28;20659;-79
2022/04/04 02:11:59;;;;;;;3.43;3.17;;;2.00;99.90;;;;;;5029717;28;20290;-80
2022/04/04 02:14:26;;;;;;;3.27;2.60;;;2.00;99.90;;;;;;5029443;28;20205;-80
2022/04/04 02:16:54;;;;;;;3.00;2.80;;;2.10;99.90;;;;;;5030503;28;20239;-82
2022/04/04 02:19:20;;;;;;;2.90;2.70;;;2.10;99.90;;;;;;5049482;28;20236;-81
2022/04/04 02:21:47;;;;;;;3.00;2.80;;;2.10;99.90;;;;;;5048862;28;20208;-76
2022/04/04 02:24:14;;;;;;;3.90;3.60;;;2.10;99.90;;;;;;5013581;28;20210;-83
2022/04/04 02:26:40;;;;;;;3.00;2.70;;;2.00;99.90;;;;;;5009918;28;20201;-83
2022/04/04 02:29:07;;;;;;;4.10;3.17;;;2.00;99.90;;;;;;5027545;28;20238;-83
2022/04/04 02:31:34;;;;;;;2.90;2.70;;;2.00;99.90;;;;;;5029860;28;20640;-83
2022/04/04 02:34:02;;;;;;;3.57;3.10;;;2.00;99.90;;;;;;5025012;28;20224;-82
2022/04/04 02:36:29;;;;;;;2.80;2.60;;;2.00;99.90;;;;;;5026445;28;20215;-85
2022/04/04 02:38:56;;;;;;;2.87;2.67;;;1.90;99.90;;;;;;5026555;28;20235;-83
2022/04/04 02:41:22;;;;;;;2.90;2.70;;;2.00;99.90;;;;;;5025935;28;20732;-83
2022/04/04 02:43:49;;;;;;;3.37;3.17;;;1.90;99.90;;;;;;5026646;28;20212;-82
2022/04/04 02:46:15;;;;;;;3.27;2.80;;;2.00;99.90;;;;;;5026807;28;20205;-81
2022/04/04 02:48:42;;;;;;;4.30;4.00;;;2.10;99.90;;;;;;5026954;28;20220;-80
2022/04/04 02:51:10;;;;;;;3.30;3.10;;;2.10;99.90;;;;;;5026452;28;20205;-82
2022/04/04 02:53:37;;;;;;;3.03;2.83;;;2.00;99.90;;;;;;5015532;28;20209;-83
2022/04/04 02:58:51;;;;;;;3.17;2.97;;;2.00;99.90;;;;;;5021644;28;20285;-82
2022/04/04 03:01:20;;;;;;;3.00;2.80;;;2.10;99.90;;;;;;5025027;28;20213;-83
2022/04/04 03:03:47;;;;;;;3.27;3.07;;;2.00;99.90;;;;;;5026124;28;20274;-84
2022/04/04 03:06:15;;;;;;;3.10;2.90;;;2.00;99.90;;;;;;5026273;28;20251;-83
2022/04/04 03:08:42;;;;;;;3.30;3.10;;;2.00;99.90;;;;;;5025869;28;20679;-84
2022/04/04 03:11:09;;;;;;;3.93;3.37;;;2.00;99.90;;;;;;5026404;28;20257;-84
2022/04/04 03:13:36;;;;;;;3.20;3.00;;;2.00;99.90;;;;;;5027910;28;20294;-84
2022/04/04 03:16:06;;;;;;;3.60;3.30;;;2.00;99.90;;;;;;5026601;28;20672;-83
2022/04/04 03:18:35;;;;;;;3.50;3.20;;;2.00;99.90;;;;;;5037401;28;20200;-83
2022/04/04 03:21:11;;;;;;;3.50;3.30;;;2.00;99.90;;;;;;5027635;28;20244;-83
2022/04/04 03:23:40;;;;;;;3.47;3.17;;;2.10;99.90;;;;;;5021442;28;20570;-83
2022/04/04 03:26:08;;;;;;;3.50;3.20;;;2.10;99.90;;;;;;5027805;28;20255;-83
2022/04/04 03:28:34;;;;;;;3.20;2.90;;;2.10;99.90;;;;;;5027870;28;20656;-84
2022/04/04 03:31:01;;;;;;;3.13;2.93;;;2.10;99.90;;;;;;5027695;28;20205;-84
2022/04/04 03:33:28;;;;;;;3.47;3.20;;;2.10;99.90;;;;;;5027977;28;20765;-84
2022/04/04 03:35:54;;;;;;;3.00;2.80;;;2.10;99.90;;;;;;5027952;28;20204;-84
2022/04/04 03:38:21;;;;;;;4.00;3.33;;;2.10;99.90;;;;;;5028100;28;20255;-83
2022/04/04 03:40:49;;;;;;;3.57;3.37;;;2.10;99.90;;;;;;5027885;28;20222;-84
2022/04/04 03:43:16;;;;;;;3.07;2.87;;;2.10;99.90;;;;;;5027726;28;20732;-83
2022/04/04 03:45:42;;;;;;;2.97;2.80;;;2.10;99.90;;;;;;5027666;28;20204;-83
2022/04/04 03:48:09;;;;;;;2.83;2.67;;;2.10;99.90;;;;;;5027431;28;20243;-84
2022/04/04 03:50:36;;;;;;;3.10;2.90;;;2.10;99.90;;;;;;5027969;28;20255;-83
2022/04/04 03:53:03;;;;;;;2.90;2.70;;;2.10;99.90;;;;;;5027289;28;20232;-83
2022/04/04 03:55:32;;;;;;;3.27;3.07;;;2.10;99.90;;;;;;5027797;28;20205;-83
2022/04/04 03:58:01;;;;;;;3.20;2.90;;;2.10;99.90;;;;;;5027293;28;20208;-83
2022/04/04 04:00:28;;;;;;;4.40;3.40;;;2.10;99.90;;;;;;5027082;28;20240;-83
2022/04/04 04:02:55;;;;;;;3.20;2.77;;;2.10;99.90;;;;;;5027609;28;20227;-83
2022/04/04 04:05:23;;;;;;;3.50;3.20;;;2.10;99.90;;;;;;5027485;28;20220;-84
2022/04/04 04:07:49;;;;;;;3.53;3.20;;;2.00;99.90;;;;;;5027397;28;20201;-84
2022/04/04 04:10:16;;;;;;;3.40;3.20;;;2.00;99.90;;;;;;5027511;28;20270;-83
2022/04/04 04:12:45;;;;;;;3.80;3.50;;;2.10;99.90;;;;;;5028475;28;20331;-83
2022/04/04 04:15:16;;;;;;;3.00;2.80;;;2.10;99.90;;;;;;5030599;28;20264;-82
2022/04/04 04:17:43;;;;;;;4.33;2.97;;;2.20;99.90;;;;;;5039491;28;20215;-83
2022/04/04 04:20:23;;;;;;;2.73;2.53;;;2.10;99.90;;;;;;5045025;28;20232;-83
2022/04/04 04:22:54;;;;;;;3.10;2.90;;;2.10;99.90;;;;;;5030869;28;20617;-83
2022/04/04 04:25:22;;;;;;;3.30;2.70;;;2.10;99.90;;;;;;5031144;28;20219;-83
2022/04/04 04:27:50;;;;;;;3.30;3.10;;;2.10;99.90;;;;;;5031511;28;20211;-84
2022/04/04 04:30:19;;;;;;;3.63;3.10;;;2.00;99.90;;;;;;5031213;28;20265;-84
2022/04/04 04:32:49;;;;;;;3.37;3.17;;;2.10;99.90;;;;;;5030979;28;20237;-83
2022/04/04 04:35:17;;;;;;;3.27;2.80;;;2.00;99.90;;;;;;5031166;28;20208;-83
2022/04/04 04:37:44;;;;;;;3.13;2.77;;;2.00;99.90;;;;;;5031066;28;20263;-83
2022/04/04 04:40:12;;;;;;;3.27;3.07;;;2.00;99.90;;;;;;5031053;28;20209;-83
2022/04/04 04:42:39;;;;;;;3.20;2.90;;;2.10;99.90;;;;;;5030505;28;20707;-83
2022/04/04 04:45:07;;;;;;;2.93;2.63;;;2.10;99.90;;;;;;5030693;28;20217;-82
2022/04/04 04:47:35;;;;;;;3.07;2.87;;;2.10;99.90;;;;;;5030608;28;20557;-83
2022/04/04 04:50:04;;;;;;;2.67;2.47;;;2.20;99.90;;;;;;5030954;28;20214;-82
2022/04/04 04:52:31;;;;;;;3.13;2.93;;;2.20;99.90;;;;;;5025571;28;20550;-82
2022/04/04 04:54:57;;;;;;;4.33;3.30;;;2.30;99.90;;;;;;5010896;28;20201;-83
2022/04/04 04:57:24;;;;;;;3.03;2.83;;;2.20;99.90;;;;;;5011048;28;20213;-82
2022/04/04 04:59:51;;;;;;;2.97;2.77;;;2.20;99.90;;;;;;5010610;28;20209;-82
2022/04/04 05:02:17;;;;;;;3.13;2.73;;;2.20;99.90;;;;;;5011505;28;20693;-82
2022/04/04 05:04:46;;;;;;;3.43;3.10;;;2.20;99.90;;;;;;5030573;28;20209;-83
2022/04/04 05:07:13;;;;;;;2.90;2.70;;;2.20;99.90;;;;;;5030494;28;20318;-83
2022/04/04 05:09:40;;;;;;;2.90;2.70;;;2.20;99.90;;;;;;5029377;28;20204;-83
2022/04/04 05:12:08;;;;;;;3.23;2.93;;;2.30;99.90;;;;;;5028505;28;20215;-84
2022/04/04 05:14:36;;;;;;;2.93;2.73;;;2.30;99.90;;;;;;5030261;28;20212;-82
2022/04/04 05:17:05;;;;;;;3.17;2.93;;;2.40;99.90;;;;;;5032669;28;20216;-83
2022/04/04 05:19:32;;;;;;;3.70;3.40;;;2.40;99.90;;;;;;5050344;28;20252;-83
2022/04/04 05:22:00;;;;;;;3.30;3.10;;;2.50;99.90;;;;;;5034254;28;20208;-84
2022/04/04 05:24:29;;;;;;;3.17;2.93;;;2.50;99.90;;;;;;5029360;28;20229;-83
2022/04/04 05:26:57;;;;;;;3.27;2.97;;;2.50;99.90;;;;;;5030630;28;20217;-83
2022/04/04 05:29:26;;;;;;;3.47;3.17;;;2.50;99.90;;;;;;5030092;28;20303;-83
2022/04/04 05:31:54;;;;;;;3.30;3.00;;;2.60;99.90;;;;;;5030014;28;20248;-82
2022/04/04 05:34:21;;;;;;;3.20;3.00;;;2.60;99.90;;;;;;5030024;28;20324;-82
2022/04/04 05:36:48;;;;;;;3.37;3.13;;;2.60;99.90;;;;;;5029702;28;20209;-82
2022/04/04 05:39:16;;;;;;;2.90;2.70;;;2.70;99.90;;;;;;5030133;28;20200;-82
2022/04/04 05:41:43;;;;;;;4.10;3.80;;;2.80;99.90;;;;;;5030035;28;20231;-83
2022/04/04 05:44:10;;;;;;;3.33;3.00;;;2.80;99.90;;;;;;5029406;28;20213;-83
2022/04/04 05:46:36;;;;;;;3.53;3.30;;;2.80;99.90;;;;;;5029776;28;20209;-83
2022/04/04 05:49:03;;;;;;;3.93;3.63;;;2.80;99.90;;;;;;5029839;28;20213;-84
2022/04/04 05:51:31;;;;;;;3.97;3.10;;;2.80;99.90;;;;;;5030000;28;20266;-83
2022/04/04 05:53:58;;;;;;;3.70;3.40;;;2.90;99.90;;;;;;5012312;28;20230;-83
2022/04/04 05:56:26;;;;;;;4.03;3.33;;;2.80;99.90;;;;;;5010127;28;20209;-83
2022/04/04 05:58:53;;;;;;;3.83;3.60;;;2.90;99.90;;;;;;5013305;28;20213;-83
2022/04/04 06:01:19;;;;;;;3.50;3.30;;;2.90;99.90;;;;;;5029675;28;20215;-82
2022/04/04 06:03:46;;;;;;;3.60;3.40;;;2.90;99.90;;;;;;5029575;28;20205;-83
2022/04/04 06:06:13;;;;;;;3.70;3.40;;;2.90;99.90;;;;;;5029500;28;20211;-82
2022/04/04 06:08:39;;;;;;;3.87;3.57;;;3.00;99.90;;;;;;5029337;28;20213;-82
2022/04/04 06:11:06;;;;;;;3.93;3.70;;;3.00;99.90;;;;;;5029111;28;20259;-83
2022/04/04 06:13:34;;;;;;;3.80;3.60;;;3.10;99.90;;;;;;5029137;28;20306;-84
2022/04/04 06:16:00;;;;;;;3.27;3.03;;;3.10;99.90;;;;;;5028929;28;20284;-82
2022/04/04 06:18:28;;;;;;;3.77;3.47;;;3.10;99.90;;;;;;5034219;28;20283;-83
2022/04/04 06:20:55;;;;;;;4.13;3.83;;;3.20;99.90;;;;;;5032471;28;20240;-82
2022/04/04 06:23:22;;;;;;;4.13;3.80;;;3.20;99.90;;;;;;5023702;28;20222;-83
2022/04/04 06:25:51;;;;;;;4.10;3.80;;;3.30;99.90;;;;;;5009393;28;20344;-82
2022/04/04 06:28:17;;;;;;;4.47;4.07;;;3.30;99.90;;;;;;5009118;28;20210;-82
2022/04/04 06:30:46;;;;;;;4.10;3.80;;;3.40;99.90;;;;;;5009397;28;20210;-82
2022/04/04 06:33:13;;;;;;;4.20;3.90;;;3.40;99.90;;;;;;5029032;28;20572;-83
2022/04/04 06:35:40;;;;;;;4.30;3.90;;;3.40;99.90;;;;;;5028975;28;20265;-83
2022/04/04 06:38:08;;;;;;;4.80;4.40;;;3.50;99.90;;;;;;5028614;28;20214;-83
2022/04/04 06:40:35;;;;;;;5.10;4.70;;;3.60;99.90;;;;;;5030523;28;20229;-82
2022/04/04 06:43:02;;;;;;;4.70;4.17;;;3.60;99.90;;;;;;5032025;28;20226;-84
2022/04/04 06:45:29;;;;;;;4.50;4.20;;;3.60;99.90;;;;;;5034310;28;20204;-83
2022/04/04 06:47:57;;;;;;;5.57;5.10;;;3.70;99.90;;;;;;5034607;28;20204;-84
2022/04/04 06:50:24;;;;;;;5.33;4.83;;;3.70;99.90;;;;;;5035550;28;20218;-84
2022/04/04 06:52:52;;;;;;;6.37;5.40;;;3.70;99.90;;;;;;5027473;28;20225;-83
2022/04/04 06:55:19;;;;;;;5.67;5.17;;;3.80;99.90;;;;;;5018230;28;20201;-84
2022/04/04 06:57:46;;;;;;;5.53;5.03;;;3.80;99.90;;;;;;5032101;28;20216;-84
2022/04/04 07:00:15;;;;;;;5.27;4.87;;;3.90;99.90;;;;;;5029343;28;20730;-83
2022/04/04 07:02:43;;;;;;;6.17;5.57;;;3.90;99.90;;;;;;5028367;28;20291;-82
2022/04/04 07:05:11;;;;;;;5.47;4.97;;;4.00;99.90;;;;;;5027949;28;20201;-82
2022/04/04 07:07:38;;;;;;;5.93;5.33;;;4.00;99.90;;;;;;5028595;28;20730;-82
2022/04/04 07:10:05;;;;;;;6.40;5.37;;;4.00;99.90;;;;;;5028202;28;20201;-82
2022/04/04 07:12:33;;;;;;;6.63;5.37;;;4.00;99.90;;;;;;5028621;28;20220;-82
2022/04/04 07:15:00;;;;;;;5.30;4.90;;;4.10;99.90;;;;;;5008633;28;20249;-82
2022/04/04 07:17:27;;;;;;;6.40;5.80;;;4.10;99.90;;;;;;5020660;28;20258;-84
2022/04/04 07:19:54;;;;;;;5.00;4.67;;;4.10;99.90;;;;;;5056196;28;20231;-83
2022/04/04 07:22:22;;;;;;;5.67;5.17;;;4.20;99.90;;;;;;5067714;28;20196;-83
2022/04/04 07:24:49;;;;;;;5.73;5.23;;;4.20;99.90;;;;;;5046798;28;20189;-82
2022/04/04 07:27:16;;;;;;;6.07;5.57;;;4.30;99.90;;;;;;5043219;28;20285;-82
2022/04/04 07:29:43;;;;;;;6.37;5.80;;;4.40;99.90;;;;;;5032642;28;20291;-82
2022/04/04 07:32:10;;;;;;;6.13;5.63;;;4.40;99.90;;;;;;5040410;28;20236;-83
2022/04/04 07:34:37;;;;;;;6.13;5.63;;;4.50;99.90;;;;;;5035870;28;20286;-82
2022/04/04 07:37:04;;;;;;;6.40;5.90;;;4.50;99.90;;;;;;5030101;28;20213;-82
2022/04/04 07:39:32;;;;;;;5.47;4.97;;;4.60;99.90;;;;;;5033950;28;20213;-84
2022/04/04 07:41:59;;;;;;;5.50;5.00;;;4.60;99.90;;;;;;5023819;28;20225;-83
2022/04/04 07:44:26;;;;;;;6.83;5.30;;;4.70;99.90;;;;;;5024321;28;20216;-82
2022/04/04 07:46:53;;;;;;;6.20;5.60;;;4.80;99.90;;;;;;5022694;28;20217;-82
2022/04/04 07:49:20;;;;;;;5.00;4.60;;;4.80;99.90;;;;;;5022871;28;20228;-81
2022/04/04 07:51:46;;;;;;;5.67;5.17;;;4.90;99.90;;;;;;5023563;28;20201;-81
2022/04/04 07:54:13;;;;;;;5.40;4.90;;;5.00;99.90;;;;;;5035474;28;20290;-82
2022/04/04 07:56:41;;;;;;;6.00;5.50;;;5.00;99.90;;;;;;5029345;28;20565;-81
2022/04/04 07:59:08;;;;;;;5.83;5.33;;;5.00;99.90;;;;;;5035522;28;20730;-82
2022/04/04 08:01:35;;;;;;;5.67;5.17;;;5.10;99.90;;;;;;5014645;28;20205;-83
2022/04/04 08:04:02;;;;;;;5.93;5.40;;;5.10;99.90;;;;;;5010434;28;20279;-82
2022/04/04 08:06:28;;;;;;;5.63;4.90;;;5.10;99.90;;;;;;5032956;28;20308;-82
2022/04/04 08:08:55;;;;;;;5.27;4.87;;;5.10;99.90;;;;;;5039156;28;20204;-82
2022/04/04 08:11:22;;;;;;;6.10;5.57;;;5.10;99.90;;;;;;5054003;28;20254;-83
2022/04/04 08:13:50;;;;;;;5.53;5.03;;;5.20;99.90;;;;;;5050066;28;20227;-82
2022/04/04 08:16:17;;;;;;;5.97;5.47;;;5.20;99.90;;;;;;5049558;28;20212;-82
2022/04/04 08:18:44;;;;;;;5.10;4.70;;;5.30;99.90;;;;;;5046834;28;20685;-81
2022/04/04 08:21:10;;;;;;;5.90;5.13;;;5.40;99.90;;;;;;5047433;28;20646;-82
2022/04/04 08:23:37;;;;;;;5.63;5.17;;;5.40;99.90;;;;;;5036215;28;20279;-82
2022/04/04 08:26:07;;;;;;;5.60;5.13;;;5.40;99.90;;;;;;5027667;28;20226;-81
2022/04/04 08:28:34;;;;;;;5.83;5.33;;;5.50;99.90;;;;;;5027948;28;20258;-82
2022/04/04 08:31:07;;;;;;;5.30;4.87;;;5.50;99.90;;;;;;5028119;28;20209;-82
2022/04/04 08:33:34;;;;;;;4.97;4.57;;;5.60;99.90;;;;;;5031568;28;20228;-81
2022/04/04 08:36:03;;;;;;;5.10;4.60;;;5.60;99.90;;;;;;5036888;28;20237;-81
2022/04/04 08:38:31;;;;;;;6.93;5.00;;;5.60;99.90;;;;;;5037917;28;20300;-81
2022/04/04 08:41:05;;;;;;;4.77;4.37;;;5.70;99.90;;;;;;5036423;28;20225;-81
2022/04/04 08:43:38;;;;;;;4.73;4.33;;;5.70;99.90;;;;;;5034149;28;20225;-81
2022/04/04 08:46:07;;;;;;;5.10;4.13;;;5.70;99.90;;;;;;5037302;28;20361;-83
2022/04/04 08:48:34;;;;;;;5.13;4.63;;;5.80;99.90;;;;;;5035101;28;20847;-82
2022/04/04 08:51:04;;;;;;;4.47;4.10;;;5.80;99.90;;;;;;5027209;28;20209;-83
2022/04/04 08:53:31;;;;;;;6.03;5.53;;;5.80;99.90;;;;;;5023732;28;20228;-82
2022/04/04 08:55:58;;;;;;;5.17;4.77;;;5.80;99.90;;;;;;5023451;28;20210;-81
2022/04/04 08:58:25;;;;;;;5.37;4.90;;;5.90;99.90;;;;;;5007694;28;20208;-83
2022/04/04 09:00:52;;;;;;;5.70;5.17;;;5.90;99.90;;;;;;5012017;28;20232;-82
2022/04/04 09:03:29;;;;;;;5.70;4.63;;;6.00;99.90;;;;;;5031020;28;20216;-81
2022/04/04 09:05:58;;;;;;;5.70;5.20;;;6.00;99.90;;;;;;5031118;28;20550;-82
2022/04/04 09:08:25;;;;;;;6.57;5.37;;;6.00;99.90;;;;;;5030929;28;20208;-82
2022/04/04 09:10:54;;;;;;;5.87;5.37;;;6.10;99.90;;;;;;5031048;28;20209;-84
2022/04/04 09:13:23;;;;;;;5.57;5.07;;;6.00;99.90;;;;;;5031261;28;20277;-81
2022/04/04 09:15:55;;;;;;;7.37;5.20;;;6.10;99.90;;;;;;5030340;28;20725;-82
2022/04/04 09:18:43;;;;;;;5.60;5.20;;;6.10;99.90;;;;;;5044135;28;20212;-82
2022/04/04 09:21:12;;;;;;;5.60;5.20;;;6.20;99.90;;;;;;5050165;28;20236;-82
2022/04/04 09:23:54;;;;;;;5.67;4.90;;;6.20;99.90;;;;;;5039185;28;20247;-80
2022/04/04 09:26:28;;;;;;;5.77;5.20;;;6.40;99.90;;;;;;5030243;28;20199;-81
2022/04/04 09:28:55;;;;;;;5.83;5.33;;;6.50;99.90;;;;;;5030120;28;20195;-82
2022/04/04 09:31:23;;;;;;;6.60;5.43;;;6.40;99.90;;;;;;5029912;28;20616;-80
2022/04/04 09:33:51;;;;;;;6.60;6.03;;;6.60;99.90;;;;;;5030095;28;20229;-81
2022/04/04 09:36:18;;;;;;;6.10;5.60;;;6.60;99.90;;;;;;5030101;28;20217;-81
2022/04/04 09:38:55;;;;;;;6.30;5.80;;;6.60;99.90;;;;;;5030013;28;20212;-81
2022/04/04 09:41:22;;;;;;;13.27;6.63;;;6.80;99.90;;;;;;5030033;28;20253;-80
2022/04/04 09:43:53;;;;;;;12.97;6.63;;;6.70;99.90;;;;;;5029871;28;20216;-81
2022/04/04 09:46:20;;;;;;;6.40;5.90;;;6.80;99.90;;;;;;5029691;28;20240;-81
2022/04/04 09:49:09;;;;;;;7.10;6.43;;;6.80;99.90;;;;;;5029820;28;20212;-81
2022/04/04 09:51:42;;;;;;;6.90;6.20;;;6.90;99.90;;;;;;5029320;28;20674;-81
2022/04/04 09:54:11;;;;;;;11.93;6.27;;;7.00;99.90;;;;;;5029224;28;20243;-81
2022/04/04 09:56:38;;;;;;;8.47;6.17;;;7.00;99.90;;;;;;5029578;28;20209;-81
2022/04/04 09:59:05;;;;;;;7.47;6.30;;;7.00;99.90;;;;;;5028892;28;21012;-81
2022/04/04 10:01:33;;;;;;;10.43;6.63;;;7.00;99.90;;;;;;5029490;28;20201;-82
2022/04/04 10:04:02;;;;;;;6.53;5.87;;;7.10;99.90;;;;;;5029382;28;20239;-81
2022/04/04 10:06:31;;;;;;;6.63;5.97;;;7.00;99.90;;;;;;5029344;28;20208;-81
2022/04/04 10:08:59;;;;;;;7.40;6.13;;;7.00;99.90;;;;;;5029324;28;20205;-81
2022/04/04 10:11:27;;;;;;;6.80;6.20;;;6.90;99.90;;;;;;5028809;28;20209;-80
2022/04/04 10:13:54;;;;;;;8.03;6.50;;;7.00;99.90;;;;;;5029113;28;20228;-81
2022/04/04 10:16:23;;;;;;;6.47;5.77;;;7.00;99.90;;;;;;5028559;28;20626;-82
2022/04/04 10:18:50;;;;;;;6.53;6.03;;;6.90;99.90;;;;;;5046248;28;20204;-81
2022/04/04 10:21:18;;;;;;;6.67;5.97;;;6.90;99.90;;;;;;5049338;28;20208;-81
2022/04/04 10:23:49;;;;;;;7.20;6.43;;;7.00;99.90;;;;;;5037101;28;20232;-82
2022/04/04 10:26:19;;;;;;;8.77;5.70;;;6.90;99.90;;;;;;5029192;28;20201;-80
2022/04/04 10:28:48;;;;;;;6.60;5.80;;;6.90;99.90;;;;;;5029133;28;20677;-81
2022/04/04 10:31:16;;;;;;;6.00;5.60;;;7.00;99.90;;;;;;5028807;28;20208;-81
2022/04/04 10:33:44;;;;;;;7.03;5.50;;;7.10;99.90;;;;;;5029010;28;20250;-80
2022/04/04 10:36:13;;;;;;;6.40;5.47;;;7.20;99.90;;;;;;5028280;28;20694;-80
2022/04/04 10:38:47;;;;;;;7.63;5.60;;;7.30;99.90;;;;;;5028919;28;20230;-79
2022/04/04 10:41:18;;;;;;;8.77;5.63;;;7.40;99.90;;;;;;5028438;28;20227;-81
2022/04/04 10:43:46;;;;;;;5.50;5.00;;;7.40;99.50;;;;;;5028375;28;20729;-80
2022/04/04 10:46:14;;;;;;;7.53;4.90;;;7.40;99.40;;;;;;5028372;28;20629;-81
2022/04/04 10:48:42;;;;;;;9.67;5.60;;;7.50;99.30;;;;;;5028274;28;20618;-81
2022/04/04 10:51:12;;;;;;;10.90;5.37;;;7.50;98.90;;;;;;5028575;28;20231;-81
2022/04/04 10:53:45;;;;;;;5.97;5.40;;;7.50;98.70;;;;;;5024762;28;20621;-81
2022/04/04 10:56:18;;;;;;;4.97;4.57;;;7.50;98.60;;;;;;5028657;28;20215;-81
2022/04/04 10:58:45;;;;;;;10.07;4.97;;;7.40;98.80;;;;;;5037708;28;20257;-81
2022/04/04 11:01:16;;;;;;;9.50;4.97;;;7.40;98.50;;;;;;5047921;28;20582;-80
2022/04/04 11:03:58;;;;;;;7.13;4.27;;;7.40;98.30;;;;;;5047922;28;20979;-81
2022/04/04 11:09:32;;;;;;;4.10;3.77;;;7.40;98.10;;;;;;5048188;28;20199;-82
2022/04/04 11:12:12;;;;;;;7.50;4.17;;;7.40;98.20;;;;;;5048126;28;20253;-81
2022/04/04 11:14:54;;;;;;;4.47;4.17;;;7.40;98.00;;;;;;5047435;28;20780;-82
2022/04/04 11:17:30;;;;;;;4.67;4.23;;;7.30;97.90;;;;;;5047643;28;20549;-82
2022/04/04 11:20:02;;;;;;;22.10;5.33;;;7.30;98.00;;;;;;5043127;28;20664;-81
2022/04/04 11:22:30;;;;;;;7.27;4.23;;;7.30;98.70;;;;;;5025822;28;20644;-81
2022/04/04 11:25:03;;;;;;;16.53;5.20;;;7.30;98.70;;;;;;5016330;28;20258;-82
2022/04/04 11:27:33;;;;;;;5.03;4.63;;;7.20;98.70;;;;;;5028139;28;20204;-81
2022/04/04 11:30:00;;;;;;;8.20;4.50;;;7.30;98.80;;;;;;5027784;28;20204;-81
2022/04/04 11:32:31;;;;;;;4.27;3.93;;;7.20;98.70;;;;;;5027839;28;20205;-81
2022/04/04 11:35:01;;;;;;;6.80;4.20;;;7.30;98.90;;;;;;5028229;28;20225;-81
2022/04/04 11:37:29;;;;;;;4.73;4.30;;;7.30;99.60;;;;;;5027901;28;20208;-80
2022/04/04 11:40:03;;;;;;;4.53;3.60;;;7.30;99.60;;;;;;5028067;28;20230;-80
2022/04/04 11:42:32;;;;;;;11.73;4.07;;;7.30;99.50;;;;;;5027991;28;20227;-82
2022/04/04 11:44:59;;;;;;;3.93;3.17;;;7.30;99.40;;;;;;5027323;28;20231;-81
2022/04/04 11:47:26;;;;;;;6.93;3.13;;;7.10;99.70;;;;;;5027526;28;20259;-81
2022/04/04 11:49:58;;;;;;;5.03;3.30;;;7.00;99.80;;;;;;5027522;28;20266;-80
2022/04/04 11:52:26;;;;;;;4.80;2.70;;;7.00;99.90;;;;;;5027801;28;20656;-81
2022/04/04 11:54:53;;;;;;;10.40;3.00;;;6.80;99.90;;;;;;5027450;28;20711;-81
2022/04/04 11:57:21;;;;;;;7.37;3.30;;;6.80;99.90;;;;;;5028029;28;20268;-77
2022/04/04 11:59:50;;;;;;;3.43;2.87;;;6.60;99.90;;;;;;5027429;28;20664;-78
2022/04/04 12:02:23;;;;;;;13.50;3.67;;;6.50;99.90;;;;;;5027943;28;20262;-79
2022/04/04 12:04:49;;;;;;;5.37;3.10;;;6.50;99.90;;;;;;5027823;28;20203;-78
2022/04/04 12:07:17;;;;;;;127.63;8.87;;;6.30;99.90;;;;;;5027957;28;20209;-77
2022/04/04 12:09:46;;;;;;;4.10;3.10;;;6.40;99.90;;;;;;5027899;28;20205;-78
2022/04/04 12:12:13;;;;;;;5.57;3.20;;;6.40;99.90;;;;;;5027886;28;20215;-78
2022/04/04 12:14:43;;;;;;;5.50;3.10;;;6.40;99.90;;;;;;5027139;28;20258;-78
2022/04/04 12:17:12;;;;;;;6.00;2.97;;;6.20;99.90;;;;;;5030822;28;20677;-78
2022/04/04 12:19:42;;;;;;;10.10;3.10;;;6.00;99.90;;;;;;5047127;28;20228;-77
2022/04/04 12:24:55;;;;;;;7.37;3.30;;;5.90;99.90;;;;;;5046918;28;20741;-78
2022/04/04 12:24:59;;;;;;;7.83;3.70;;;5.70;99.90;;;;;;5007540;28;20202;-78
2022/04/04 12:27:26;;;;;;;4.53;3.40;;;5.60;99.90;;;;;;5008185;28;20217;-77
2022/04/04 12:29:59;;;;;;;4.60;3.97;;;5.40;99.90;;;;;;5007499;28;20209;-78
2022/04/04 12:32:32;;;;;;;4.63;3.90;;;5.40;99.90;;;;;;5007847;28;20197;-79
2022/04/04 12:35:00;;;;;;;6.60;4.40;;;5.20;99.90;;;;;;5011345;28;20295;-79
2022/04/04 12:37:35;;;;;;;8.20;4.30;;;5.00;99.90;;;;;;5025767;28;20675;-78
2022/04/04 12:40:20;;;;;;;5.00;4.70;;;4.80;99.90;;;;;;5030867;28;20228;-79
2022/04/04 12:42:48;;;;;;;5.87;5.00;;;4.50;99.90;;;;;;5031077;28;20213;-79
2022/04/04 12:45:17;;;;;;;6.20;5.17;;;4.50;99.90;;;;;;5030863;28;20213;-79
2022/04/04 12:47:56;;;;;;;5.60;5.10;;;4.30;99.90;;;;;;5030410;28;20663;-78
2022/04/04 12:50:25;;;;;;;9.93;5.63;;;4.10;99.90;;;;;;5033592;28;20473;-77
2022/04/04 12:52:59;;;;;;;8.07;6.40;;;4.10;99.90;;;;;;5038010;28;20329;-78
2022/04/04 12:55:26;;;;;;;7.73;6.10;;;4.10;99.90;;;;;;5011385;28;20283;-79
2022/04/04 12:57:53;;;;;;;11.90;5.83;;;4.00;99.90;;;;;;5010825;28;20684;-78
2022/04/04 13:00:26;;;;;;;6.60;6.10;;;4.00;99.90;;;;;;5026247;28;20212;-78
2022/04/04 13:02:55;;;;;;;6.30;5.80;;;3.90;99.90;;;;;;5030611;28;20267;-78
2022/04/04 13:05:25;;;;;;;6.63;6.13;;;3.80;99.90;;;;;;5031025;28;20589;-80
2022/04/04 13:07:53;;;;;;;6.70;6.10;;;3.70;99.90;;;;;;5030533;28;20205;-78
2022/04/04 13:10:24;;;;;;;6.63;6.03;;;3.70;99.90;;;;;;5030824;28;20208;-79